createdAt,value
2018-12-23T08:28:23.278Z,15.53
2018-12-23T08:30:51.219Z,22.33
2018-12-23T08:33:19.305Z,19.13
2018-12-23T08:35:47.354Z,21.43
2018-12-23T08:38:15.277Z,22.37
2018-12-23T08:43:36.853Z,18.97
2018-12-23T08:46:04.753Z,21.47
2018-12-23T08:48:32.743Z,22.47
2018-12-23T08:51:00.789Z,21.53
2018-12-23T08:54:04.398Z,23.50
2018-12-23T08:56:32.803Z,14.87
2018-12-23T08:59:27.423Z,18.97
2018-12-23T09:02:13.417Z,19.43
2018-12-23T09:05:24.992Z,19.43
2018-12-23T09:07:53.367Z,20.80
2018-12-23T09:10:21.299Z,19.77
2018-12-23T09:12:53.558Z,20.30
2018-12-23T09:15:19.858Z,20.80
2018-12-23T09:17:51.028Z,21.10
2018-12-23T09:20:27.363Z,19.00
2018-12-23T09:23:32.097Z,21.17
2018-12-23T09:29:23.981Z,20.97
2018-12-23T09:31:54.423Z,21.90
2018-12-23T09:34:28.081Z,21.77
2018-12-23T09:36:58.347Z,21.50
2018-12-23T09:39:29.464Z,19.70
2018-12-23T09:42:10.918Z,22.27
2018-12-23T09:45:03.792Z,21.73
2018-12-23T09:47:31.878Z,20.17
2018-12-23T09:50:02.449Z,21.07
2018-12-23T09:52:30.486Z,22.07
2018-12-23T09:54:59.732Z,22.23
2018-12-23T10:01:31.183Z,21.17
2018-12-23T10:08:25.394Z,21.50
2018-12-23T10:11:23.512Z,22.17
2018-12-23T10:13:51.880Z,21.07
2018-12-23T10:16:24.532Z,22.40
2018-12-23T10:19:00.553Z,22.87
2018-12-23T10:21:51.362Z,20.57
2018-12-23T10:27:56.560Z,21.30
2018-12-23T10:30:33.682Z,19.33
2018-12-23T10:33:07.630Z,21.73
2018-12-23T10:35:45.637Z,16.57
2018-12-23T10:53:30.608Z,19.60
2018-12-23T10:57:04.614Z,19.63
2018-12-23T11:03:45.079Z,19.57
2018-12-23T11:06:46.578Z,17.60
2018-12-23T11:09:46.383Z,19.53
2018-12-23T11:12:52.609Z,18.57
2018-12-23T11:15:24.312Z,18.87
2018-12-23T11:18:03.515Z,18.80
2018-12-23T11:21:17.098Z,18.63
2018-12-23T11:27:44.549Z,19.80
2018-12-23T11:31:26.982Z,19.23
2018-12-23T11:34:16.937Z,21.17
2018-12-23T11:37:03.714Z,18.07
2018-12-23T11:40:14.098Z,17.93
2018-12-23T11:43:55.222Z,19.00
2018-12-23T11:53:26.165Z,17.85
2018-12-23T12:07:13.163Z,16.73
2018-12-23T12:45:29.369Z,18.30
2018-12-23T12:52:16.161Z,17.67
2018-12-23T12:54:47.134Z,19.67
2018-12-23T12:57:32.913Z,19.17
2018-12-23T13:00:11.403Z,18.17
2018-12-23T13:11:11.394Z,17.97
2018-12-23T13:14:07.895Z,16.63
2018-12-23T13:23:13.909Z,17.60
2018-12-23T13:26:28.150Z,18.30
2018-12-23T13:29:55.859Z,17.13
2018-12-23T13:32:35.969Z,18.50
2018-12-23T13:35:55.863Z,16.30
2018-12-23T13:42:42.109Z,19.13
2018-12-23T14:01:10.822Z,15.20
2018-12-23T14:08:04.837Z,11.43
2018-12-23T14:11:13.948Z,8.90
2018-12-23T14:23:48.632Z,8.20
2018-12-23T14:30:03.034Z,9.53
2018-12-23T14:33:47.038Z,7.97
2018-12-23T14:40:16.207Z,7.13
2018-12-23T14:45:49.467Z,8.07
2018-12-23T14:48:25.323Z,8.60
2018-12-23T14:51:02.239Z,8.57
2018-12-23T14:53:42.700Z,8.10
2018-12-23T15:10:21.604Z,10.80
2018-12-23T15:16:18.393Z,9.27
2018-12-23T15:26:36.499Z,11.10
2018-12-23T15:29:56.670Z,9.97
2018-12-23T15:32:24.984Z,10.17
2018-12-23T15:39:30.023Z,10.13
2018-12-23T15:41:58.988Z,10.37
2018-12-23T15:47:59.908Z,10.17
2018-12-23T15:51:16.510Z,10.23
2018-12-23T15:53:59.762Z,11.73
2018-12-23T15:56:28.469Z,10.80
2018-12-23T15:59:23.385Z,10.90
2018-12-23T16:02:23.411Z,11.70
2018-12-23T16:05:14.048Z,11.60
2018-12-23T16:07:42.849Z,12.27
2018-12-23T16:10:23.673Z,11.90
2018-12-23T16:12:57.097Z,13.00
2018-12-23T16:15:25.217Z,14.30
2018-12-23T16:22:51.666Z,14.57
2018-12-23T16:25:20.069Z,12.67
2018-12-23T16:27:48.689Z,13.90
2018-12-23T16:30:17.249Z,14.33
2018-12-23T16:32:45.944Z,16.90
2018-12-23T16:35:17.663Z,15.20
2018-12-23T16:38:56.599Z,14.63
2018-12-23T16:41:25.298Z,14.73
2018-12-23T16:44:19.896Z,15.17
2018-12-23T16:46:58.149Z,16.37
2018-12-23T16:49:26.763Z,17.93
2018-12-23T16:51:54.944Z,18.23
2018-12-23T16:57:47.214Z,17.63
2018-12-23T17:01:11.192Z,17.40
2018-12-23T17:04:26.739Z,17.33
2018-12-23T17:18:07.058Z,17.60
2018-12-23T17:20:58.228Z,17.77
2018-12-23T17:23:43.950Z,16.97
2018-12-23T17:26:12.204Z,16.77
2018-12-23T17:28:40.514Z,16.87
2018-12-23T17:31:37.058Z,15.43
2018-12-23T17:37:44.434Z,15.93
2018-12-23T17:40:16.587Z,17.37
2018-12-23T17:43:22.706Z,14.33
2018-12-23T17:53:32.760Z,15.87
2018-12-23T17:59:36.889Z,16.20
2018-12-23T18:02:05.617Z,16.70
2018-12-23T18:08:09.938Z,16.33
2018-12-23T18:10:38.823Z,17.70
2018-12-23T18:13:07.745Z,16.87
2018-12-23T18:15:36.768Z,19.40
2018-12-23T18:18:09.470Z,19.97
2018-12-23T18:20:37.830Z,21.40
2018-12-23T18:23:06.256Z,20.27
2018-12-23T18:25:34.597Z,19.97
2018-12-23T18:28:02.855Z,21.30
2018-12-23T18:30:31.289Z,22.03
2018-12-23T18:32:59.664Z,20.27
2018-12-23T18:35:29.671Z,19.13
2018-12-23T18:37:57.939Z,19.17
2018-12-23T18:40:33.165Z,19.47
2018-12-23T18:42:56.472Z,18.27
2018-12-23T18:45:24.795Z,20.70
2018-12-23T18:47:53.211Z,18.83
2018-12-23T18:50:21.500Z,18.77
2018-12-23T18:52:51.061Z,18.07
2018-12-23T18:55:19.425Z,18.50
2018-12-23T18:57:48.875Z,18.60
2018-12-23T19:00:17.070Z,18.90
2018-12-23T19:02:54.676Z,18.73
2018-12-23T19:05:22.980Z,18.20
2018-12-23T19:07:57.470Z,15.47
2018-12-23T19:10:55.702Z,20.37
2018-12-23T19:14:11.555Z,17.97
2018-12-23T19:17:09.091Z,19.10
2018-12-23T19:20:18.752Z,17.60
2018-12-23T19:23:32.130Z,16.47
2018-12-23T19:26:57.040Z,17.00
2018-12-23T19:30:02.033Z,16.60
2018-12-23T19:33:07.290Z,16.03
2018-12-23T19:36:15.209Z,16.23
2018-12-23T19:39:20.735Z,17.57
2018-12-23T19:42:35.650Z,20.27
2018-12-23T19:45:51.070Z,18.33
2018-12-23T19:48:49.455Z,20.80
2018-12-23T19:51:53.715Z,20.37
2018-12-23T19:54:43.991Z,19.53
2018-12-23T19:57:50.040Z,20.10
2018-12-23T20:01:08.064Z,18.67
2018-12-23T20:03:55.589Z,17.67
2018-12-23T20:07:29.655Z,17.30
2018-12-23T20:10:40.680Z,16.47
2018-12-23T20:14:08.419Z,16.13
2018-12-23T20:17:24.403Z,16.53
2018-12-23T20:20:49.735Z,12.07
2018-12-23T20:23:54.940Z,9.33
2018-12-23T20:27:02.785Z,10.77
2018-12-23T20:30:01.263Z,8.07
2018-12-23T20:33:07.815Z,7.87
2018-12-23T20:36:02.214Z,8.37
2018-12-23T20:39:11.424Z,6.10
2018-12-23T20:42:18.369Z,4.30
2018-12-23T20:45:08.258Z,2.87
2018-12-23T20:47:59.640Z,2.57
2018-12-23T20:51:14.255Z,3.00
2018-12-23T20:54:22.335Z,2.50
2018-12-23T20:57:31.970Z,2.43
2018-12-23T21:00:50.579Z,2.30
2018-12-23T21:03:40.229Z,2.80
2018-12-23T21:06:48.229Z,2.70
2018-12-23T21:09:41.814Z,2.73
2018-12-23T21:13:01.625Z,2.57
2018-12-23T21:16:18.834Z,2.70
2018-12-23T21:19:18.031Z,3.53
2018-12-23T21:22:08.894Z,3.30
2018-12-23T21:25:13.389Z,2.90
2018-12-23T21:28:47.117Z,4.20
2018-12-23T21:31:58.987Z,4.40
2018-12-23T21:35:13.758Z,3.93
2018-12-23T21:38:22.746Z,3.90
2018-12-23T21:41:30.819Z,4.00
2018-12-23T21:44:37.999Z,3.17
2018-12-23T21:47:34.364Z,3.30
2018-12-23T21:51:05.305Z,3.10
2018-12-23T21:54:11.572Z,2.50
2018-12-23T21:57:29.578Z,2.87
2018-12-23T22:00:32.014Z,2.63
2018-12-23T22:03:36.229Z,2.80
2018-12-23T22:06:20.255Z,2.50
2018-12-23T22:09:17.293Z,2.90
2018-12-23T22:12:22.515Z,2.40
2018-12-23T22:14:50.554Z,2.50
2018-12-23T22:17:18.532Z,2.00
2018-12-23T22:19:46.575Z,2.20
2018-12-23T22:22:15.019Z,2.30
2018-12-23T22:24:43.139Z,2.17
2018-12-23T22:27:11.051Z,2.43
2018-12-23T22:29:39.179Z,1.90
2018-12-23T22:32:08.616Z,2.30
2018-12-23T22:34:37.724Z,2.30
2018-12-23T22:37:06.025Z,2.47
2018-12-23T22:39:36.954Z,2.83
2018-12-23T22:42:05.045Z,2.23
2018-12-23T22:44:33.091Z,2.20
2018-12-23T22:47:01.142Z,2.40
2018-12-23T22:49:29.038Z,2.60
2018-12-23T22:51:57.009Z,2.53
2018-12-23T22:54:25.033Z,3.00
2018-12-23T22:58:16.752Z,2.77
2018-12-23T23:01:40.186Z,2.70
2018-12-23T23:05:01.078Z,2.23
2018-12-23T23:08:05.134Z,2.13
2018-12-23T23:10:52.864Z,2.07
2018-12-23T23:13:50.363Z,2.63
2018-12-23T23:23:54.484Z,2.07
2018-12-23T23:27:04.668Z,2.57
2018-12-23T23:30:35.150Z,2.33
2018-12-23T23:36:47.817Z,3.57
2018-12-23T23:39:15.973Z,3.20
